createdAt,value
2022-11-15T00:04:01.481Z,4.40
2022-11-15T00:09:47.442Z,4.50
2022-11-15T00:15:37.382Z,4.40
2022-11-15T00:21:23.821Z,4.40
2022-11-15T00:27:10.267Z,4.40
2022-11-15T00:32:56.768Z,4.40
2022-11-15T00:38:43.020Z,4.40
2022-11-15T00:44:29.476Z,4.30
2022-11-15T00:50:16.208Z,4.30
2022-11-15T00:56:02.571Z,4.20
2022-11-15T01:01:48.684Z,4.20
2022-11-15T01:07:34.847Z,4.20
2022-11-15T01:13:21.795Z,4.10
2022-11-15T01:19:08.556Z,4.00
2022-11-15T01:24:55.028Z,3.90
2022-11-15T01:30:41.120Z,3.70
2022-11-15T01:36:27.241Z,3.70
2022-11-15T01:42:16.287Z,3.60
2022-11-15T01:48:02.434Z,3.50
2022-11-15T01:53:53.827Z,3.50
2022-11-15T01:59:43.671Z,3.40
2022-11-15T02:05:32.022Z,3.30
2022-11-15T02:11:18.225Z,3.30
2022-11-15T02:17:46.288Z,3.20
2022-11-15T02:24:11.810Z,3.20
2022-11-15T02:30:06.048Z,3.10
2022-11-15T02:36:04.021Z,3.10
2022-11-15T02:42:05.574Z,3.10
2022-11-15T02:47:56.253Z,3.10
2022-11-15T02:53:42.893Z,3.10
2022-11-15T02:59:50.697Z,3.00
2022-11-15T03:05:59.081Z,3.00
2022-11-15T03:11:53.655Z,3.00
2022-11-15T03:17:49.533Z,3.00
2022-11-15T03:23:38.545Z,3.00
2022-11-15T03:29:32.928Z,2.90
2022-11-15T03:35:24.016Z,2.90
2022-11-15T03:41:29.293Z,2.80
2022-11-15T03:47:50.622Z,2.70
2022-11-15T03:53:37.020Z,2.60
2022-11-15T03:59:23.907Z,2.50
2022-11-15T04:05:10.153Z,2.50
2022-11-15T04:10:56.876Z,2.40
2022-11-15T04:16:44.157Z,2.40
2022-11-15T04:22:48.967Z,2.40
2022-11-15T04:28:35.279Z,2.30
2022-11-15T04:34:21.627Z,2.30
2022-11-15T04:40:09.972Z,2.30
2022-11-15T04:45:56.967Z,2.30
2022-11-15T04:51:43.421Z,2.30
2022-11-15T04:57:29.311Z,2.30
2022-11-15T05:03:34.588Z,2.30
2022-11-15T05:09:22.180Z,2.40
2022-11-15T05:15:09.236Z,2.40
2022-11-15T05:20:55.589Z,2.40
2022-11-15T05:26:41.686Z,2.40
2022-11-15T05:32:29.140Z,2.40
2022-11-15T05:38:15.805Z,2.40
2022-11-15T05:44:04.072Z,2.30
2022-11-15T05:49:52.916Z,2.20
2022-11-15T05:55:41.209Z,2.30
2022-11-15T06:01:28.198Z,2.20
2022-11-15T06:07:14.863Z,2.30
2022-11-15T06:13:05.721Z,2.30
2022-11-15T06:18:52.006Z,2.20
2022-11-15T06:24:38.263Z,2.30
2022-11-15T06:30:25.920Z,2.30
2022-11-15T06:36:18.271Z,2.30
2022-11-15T06:42:09.486Z,2.30
2022-11-15T06:47:55.985Z,2.40
2022-11-15T06:53:42.080Z,2.50
2022-11-15T06:59:28.521Z,2.60
2022-11-15T07:05:16.132Z,2.70
2022-11-15T07:11:06.036Z,2.90
2022-11-15T07:16:52.519Z,3.00
2022-11-15T07:22:38.817Z,3.20
2022-11-15T07:28:25.560Z,3.30
2022-11-15T07:34:12.084Z,3.60
2022-11-15T07:39:58.599Z,3.80
2022-11-15T07:45:46.765Z,4.10
2022-11-15T07:51:33.252Z,4.40
2022-11-15T07:57:19.855Z,4.70
2022-11-15T08:03:15.676Z,5.00
2022-11-15T08:09:02.137Z,5.30
2022-11-15T08:14:48.348Z,5.60
2022-11-15T08:20:35.163Z,5.80
2022-11-15T08:26:21.296Z,6.10
2022-11-15T08:32:08.365Z,6.30
2022-11-15T08:37:54.989Z,6.60
2022-11-15T08:43:41.645Z,6.80
2022-11-15T08:49:28.197Z,7.10
2022-11-15T08:55:16.910Z,7.40
2022-11-15T09:01:05.294Z,7.60
2022-11-15T09:06:51.774Z,7.90
2022-11-15T09:12:38.233Z,8.30
2022-11-15T09:18:24.468Z,8.60
2022-11-15T09:24:10.767Z,8.90
2022-11-15T09:29:57.500Z,9.20
2022-11-15T09:35:43.602Z,9.50
2022-11-15T09:42:27.203Z,9.90
2022-11-15T09:48:23.991Z,10.10
2022-11-15T09:54:54.698Z,10.30
2022-11-15T10:00:48.005Z,10.60
2022-11-15T10:06:29.839Z,10.80
2022-11-15T10:11:58.250Z,11.10
2022-11-15T10:18:07.802Z,11.30
2022-11-15T10:23:35.644Z,11.60
2022-11-15T10:29:03.554Z,11.80
2022-11-15T10:34:38.126Z,12.10
2022-11-15T10:40:17.968Z,12.20
2022-11-15T10:45:47.505Z,12.40
2022-11-15T10:51:29.509Z,12.60
2022-11-15T10:57:01.041Z,12.70
2022-11-15T11:02:39.326Z,12.90
2022-11-15T11:08:27.532Z,13.00
2022-11-15T11:13:55.426Z,13.20
2022-11-15T11:19:54.466Z,13.40
2022-11-15T11:25:37.538Z,13.50
2022-11-15T11:31:17.267Z,13.70
2022-11-15T11:37:14.830Z,13.80
2022-11-15T11:43:22.346Z,14.00
2022-11-15T11:49:04.736Z,14.10
2022-11-15T11:54:54.035Z,14.20
2022-11-15T12:00:24.843Z,14.30
2022-11-15T12:06:36.045Z,14.30
2022-11-15T12:12:49.759Z,14.40
2022-11-15T12:18:18.247Z,14.50
2022-11-15T12:23:56.023Z,14.50
2022-11-15T12:29:57.060Z,14.60
2022-11-15T12:35:46.275Z,14.70
2022-11-15T12:41:18.441Z,14.80
2022-11-15T12:46:46.424Z,14.80
2022-11-15T12:52:14.865Z,14.90
2022-11-15T12:57:43.906Z,15.00
2022-11-15T13:03:24.560Z,15.20
2022-11-15T13:08:52.632Z,15.60
2022-11-15T13:14:40.507Z,16.00
2022-11-15T13:20:08.233Z,16.50
2022-11-15T13:25:57.174Z,17.40
2022-11-15T13:31:42.387Z,18.60
2022-11-15T13:37:30.976Z,20.10
2022-11-15T13:42:59.431Z,21.60
2022-11-15T13:48:31.262Z,22.60
2022-11-15T13:54:15.434Z,23.20
2022-11-15T14:00:06.882Z,23.50
2022-11-15T14:05:40.944Z,23.20
2022-11-15T14:11:20.791Z,22.30
2022-11-15T14:17:00.278Z,21.50
2022-11-15T14:22:31.104Z,21.10
2022-11-15T14:28:25.647Z,20.70
2022-11-15T14:33:53.848Z,20.40
2022-11-15T14:39:22.415Z,20.10
2022-11-15T14:44:52.196Z,20.10
2022-11-15T14:50:22.350Z,19.20
2022-11-15T14:55:50.856Z,18.10
2022-11-15T15:01:28.550Z,17.20
2022-11-15T15:06:57.388Z,16.20
2022-11-15T15:12:25.286Z,15.50
2022-11-15T15:17:54.302Z,14.80
2022-11-15T15:23:24.238Z,14.30
2022-11-15T15:28:53.591Z,13.80
2022-11-15T15:34:21.675Z,13.40
2022-11-15T15:39:50.714Z,13.00
2022-11-15T15:45:19.844Z,12.70
2022-11-15T15:50:50.275Z,12.40
2022-11-15T15:56:18.085Z,12.10
2022-11-15T16:01:45.914Z,11.80
2022-11-15T16:07:22.758Z,11.50
2022-11-15T16:12:50.911Z,11.30
2022-11-15T16:18:19.226Z,11.10
2022-11-15T16:23:47.190Z,10.90
2022-11-15T16:29:15.142Z,10.70
2022-11-15T16:34:48.518Z,10.50
2022-11-15T16:40:43.743Z,10.40
2022-11-15T16:46:26.956Z,10.30
2022-11-15T16:51:54.707Z,10.20
2022-11-15T16:57:22.411Z,10.10
2022-11-15T17:02:52.119Z,10.00
2022-11-15T17:08:22.065Z,10.00
2022-11-15T17:13:50.185Z,9.80
2022-11-15T17:19:21.147Z,9.70
2022-11-15T17:24:48.981Z,9.60
2022-11-15T17:30:18.770Z,9.40
2022-11-15T17:35:46.538Z,9.30
2022-11-15T17:41:17.515Z,9.10
2022-11-15T17:46:45.679Z,9.10
2022-11-15T17:52:13.879Z,8.90
2022-11-15T17:57:44.422Z,8.80
2022-11-15T18:03:12.972Z,8.60
2022-11-15T18:08:43.367Z,8.50
2022-11-15T18:14:15.160Z,8.50
2022-11-15T18:19:43.060Z,8.40
2022-11-15T18:25:15.891Z,8.40
2022-11-15T18:30:43.758Z,8.30
2022-11-15T18:36:36.571Z,8.30
2022-11-15T18:42:05.023Z,8.20
2022-11-15T18:47:32.855Z,8.00
2022-11-15T18:53:01.746Z,8.00
2022-11-15T18:58:32.288Z,7.90
2022-11-15T19:04:11.322Z,7.80
2022-11-15T19:09:39.091Z,7.80
2022-11-15T19:15:10.120Z,7.80
2022-11-15T19:20:38.327Z,7.70
2022-11-15T19:26:16.092Z,7.70
2022-11-15T19:31:44.333Z,7.60
2022-11-15T19:37:12.664Z,7.60
2022-11-15T19:42:40.722Z,7.50
2022-11-15T19:48:08.499Z,7.50
2022-11-15T19:53:37.011Z,7.40
2022-11-15T19:59:05.645Z,7.50
2022-11-15T20:04:33.351Z,7.50
2022-11-15T20:10:01.281Z,7.40
2022-11-15T20:15:29.193Z,7.40
2022-11-15T20:20:59.289Z,7.40
2022-11-15T20:26:27.333Z,7.40
2022-11-15T20:31:55.096Z,7.40
2022-11-15T20:37:23.199Z,7.30
2022-11-15T20:42:53.977Z,7.40
2022-11-15T20:48:22.134Z,7.40
2022-11-15T20:53:50.094Z,7.30
2022-11-15T20:59:17.928Z,7.30
2022-11-15T21:04:45.683Z,7.30
2022-11-15T21:10:32.454Z,7.30
2022-11-15T21:16:00.631Z,7.30
2022-11-15T21:21:28.485Z,7.30
2022-11-15T21:26:56.882Z,7.30
2022-11-15T21:32:24.751Z,7.30
2022-11-15T21:37:56.732Z,7.30
2022-11-15T21:43:25.022Z,7.30
2022-11-15T21:48:52.988Z,7.30
2022-11-15T21:54:21.035Z,7.20
2022-11-15T22:00:07.801Z,7.20
2022-11-15T22:05:35.621Z,7.20
2022-11-15T22:11:03.640Z,7.10
2022-11-15T22:16:31.959Z,7.10
2022-11-15T22:21:59.846Z,7.00
2022-11-15T22:27:27.858Z,7.00
2022-11-15T22:32:55.751Z,7.00
2022-11-15T22:38:24.768Z,6.90
2022-11-15T22:43:52.678Z,6.90
2022-11-15T22:49:20.612Z,6.90
2022-11-15T22:54:48.418Z,6.90
2022-11-15T23:00:17.159Z,6.80
2022-11-15T23:05:45.512Z,6.80
2022-11-15T23:11:32.159Z,6.70
2022-11-15T23:17:00.137Z,6.70
2022-11-15T23:22:47.022Z,6.60
2022-11-15T23:28:15.321Z,6.60
2022-11-15T23:33:58.646Z,6.60
2022-11-15T23:39:27.054Z,6.60
2022-11-15T23:44:55.019Z,6.50
2022-11-15T23:50:22.883Z,6.50
2022-11-15T23:56:10.585Z,6.50
